Wetterdaten: Woche 17.05.10 - 23.05.10 (KW20)
Datum Zeit Temp. A. Feuchte A. Luftdruck Regen Wind Richtung Taupunkt Windchill Windben
17.05.2010 00:00 5,7 C 90 % 1019,1 hPa 0,0 l/m 0,0 km/h SO 4,2 C 5,7 C 0,0 km/h
17.05.2010 01:00 4,8 C 90 % 1019,3 hPa 0,0 l/m 0,0 km/h S-SO 3,3 C 4,8 C 0,0 km/h
17.05.2010 02:00 4,4 C 91 % 1019,4 hPa 0,0 l/m 0,0 km/h NO 3,1 C 4,4 C 0,0 km/h
17.05.2010 03:00 4,2 C 92 % 1019,7 hPa 0,0 l/m 0,0 km/h SO 3,0 C 4,2 C 0,0 km/h
17.05.2010 04:00 4,6 C 92 % 1019,8 hPa 0,0 l/m 0,0 km/h SO 3,4 C 4,6 C 0,0 km/h
17.05.2010 05:00 5,3 C 93 % 1020,1 hPa 0,0 l/m 1,9 km/h S-SO 4,3 C 5,3 C 1,1 km/h
17.05.2010 06:00 5,9 C 93 % 1020,2 hPa 0,0 l/m 0,0 km/h S-SO 4,9 C 5,9 C 0,0 km/h
17.05.2010 07:00 7,6 C 91 % 1020,6 hPa 0,0 l/m 0,0 km/h S-SO 6,2 C 7,6 C 0,0 km/h
17.05.2010 08:00 9,9 C 86 % 1020,9 hPa 0,0 l/m 0,0 km/h O 7,7 C 9,9 C 0,0 km/h
17.05.2010 09:00 17,1 C 68 % 1021,2 hPa 0,0 l/m 0,0 km/h W-SW 11,1 C 17,1 C 0,0 km/h
17.05.2010 10:00 17,6 C 60 % 1021,1 hPa 0,0 l/m 2,6 km/h W 9,7 C 17,6 C 1,4 km/h
17.05.2010 11:00 20,2 C 52 % 1020,9 hPa 0,0 l/m 1,9 km/h W-SW 10,0 C 20,2 C 1,1 km/h
17.05.2010 12:00 21,1 C 51 % 1020,6 hPa 0,0 l/m 8,4 km/h W 10,6 C 20,4 C 4,7 km/h
17.05.2010 13:00 16,9 C 53 % 1020,6 hPa 0,0 l/m 1,3 km/h N-NW 7,3 C 16,9 C 0,7 km/h
17.05.2010 14:00 17,3 C 55 % 1020,5 hPa 0,0 l/m 0,0 km/h W-NW 8,2 C 17,3 C 0,0 km/h
17.05.2010 15:00 16,3 C 56 % 1020,6 hPa 0,0 l/m 5,8 km/h SO 7,5 C 16,3 C 3,2 km/h
17.05.2010 16:00 22,4 C 53 % 1020,8 hPa 0,0 l/m 18,1 km/h SO 12,3 C 19,6 C 10,1 km/h
17.05.2010 17:00 17,2 C 57 % 1020,8 hPa 0,0 l/m 0,0 km/h SO 8,6 C 17,2 C 0,0 km/h
17.05.2010 18:00 17,8 C 59 % 1020,9 hPa 0,4 l/m 0,0 km/h W 9,7 C 17,8 C 0,0 km/h
17.05.2010 19:00 14,6 C 64 % 1021,4 hPa 0,0 l/m 0,0 km/h S-SW 7,9 C 14,6 C 0,0 km/h
17.05.2010 20:00 12,3 C 72 % 1021,9 hPa 0,0 l/m 0,0 km/h NW 7,4 C 12,3 C 0,0 km/h
17.05.2010 21:00 12,2 C 73 % 1023,4 hPa 0,0 l/m 0,0 km/h S-SO 7,5 C 12,2 C 0,0 km/h
17.05.2010 22:00 10,3 C 84 % 1023,7 hPa 0,0 l/m 0,0 km/h S-SO 7,7 C 10,3 C 0,0 km/h
17.05.2010 23:00 9,8 C 88 % 1023,9 hPa 0,7 l/m 0,0 km/h SO 7,9 C 9,8 C 0,0 km/h
18.05.2010 00:00 9,4 C 90 % 1024,0 hPa 0,0 l/m 0,0 km/h O-SO 7,8 C 9,4 C 0,0 km/h
18.05.2010 01:00 9,2 C 90 % 1024,3 hPa 0,0 l/m 0,0 km/h O 7,6 C 9,2 C 0,0 km/h
18.05.2010 02:00 9,0 C 91 % 1024,4 hPa 0,0 l/m 0,0 km/h O-NO 7,6 C 9,0 C 0,0 km/h
18.05.2010 03:00 7,2 C 90 % 1024,6 hPa 0,0 l/m 0,0 km/h O-NO 5,7 C 7,2 C 0,0 km/h
18.05.2010 04:00 5,6 C 91 % 1024,8 hPa 0,0 l/m 0,0 km/h O-SO 4,2 C 5,6 C 0,0 km/h
18.05.2010 05:00 5,0 C 91 % 1025,0 hPa 0,0 l/m 0,0 km/h N-NO 3,7 C 5,0 C 0,0 km/h
18.05.2010 06:00 5,6 C 92 % 1025,1 hPa 0,0 l/m 0,0 km/h S-SO 4,4 C 5,6 C 0,0 km/h
18.05.2010 07:00 8,0 C 93 % 1025,5 hPa 0,0 l/m 0,0 km/h S 6,9 C 8,0 C 0,0 km/h
18.05.2010 08:00 13,2 C 81 % 1025,6 hPa 0,0 l/m 0,0 km/h SO 10,0 C 13,2 C 0,0 km/h
18.05.2010 09:00 18,3 C 61 % 1025,6 hPa 0,0 l/m 0,0 km/h S-SO 10,6 C 18,3 C 0,0 km/h
18.05.2010 10:00 19,8 C 51 % 1025,5 hPa 0,0 l/m 0,0 km/h NO 9,4 C 19,8 C 0,0 km/h
18.05.2010 11:00 16,4 C 53 % 1025,5 hPa 0,0 l/m 0,0 km/h W-SW 6,8 C 16,4 C 0,0 km/h
18.05.2010 12:00 17,3 C 54 % 1025,0 hPa 0,0 l/m 0,0 km/h N-NO 7,9 C 17,3 C 0,0 km/h
18.05.2010 13:00 14,6 C 56 % 1024,9 hPa 0,0 l/m 0,0 km/h N-NO 5,9 C 14,6 C 0,0 km/h
18.05.2010 14:00 18,3 C 46 % 1024,9 hPa 0,0 l/m 2,6 km/h N-NO 6,5 C 18,3 C 1,4 km/h
18.05.2010 15:00 20,8 C 44 % 1024,4 hPa 0,0 l/m 5,2 km/h N 8,1 C 20,8 C 2,9 km/h
18.05.2010 16:00 21,8 C 36 % 1024,0 hPa 0,0 l/m 0,0 km/h NW 6,1 C 21,8 C 0,0 km/h
18.05.2010 17:00 23,8 C 33 % 1023,6 hPa 0,0 l/m 9,1 km/h N 6,6 C 23,1 C 5,0 km/h
18.05.2010 18:00 19,6 C 35 % 1023,4 hPa 0,0 l/m 0,0 km/h O 3,7 C 19,6 C 0,0 km/h
18.05.2010 19:00 14,8 C 48 % 1023,6 hPa 0,0 l/m 2,6 km/h O-NO 3,9 C 14,8 C 1,4 km/h
18.05.2010 20:00 11,1 C 62 % 1023,8 hPa 0,0 l/m 0,0 km/h O-NO 4,1 C 11,1 C 0,0 km/h
18.05.2010 21:00 8,4 C 70 % 1024,4 hPa 0,0 l/m 0,0 km/h O-NO 3,3 C 8,4 C 0,0 km/h
18.05.2010 22:00 6,9 C 75 % 1024,4 hPa 0,0 l/m 0,0 km/h W-NW 2,8 C 6,9 C 0,0 km/h
18.05.2010 23:00 6,8 C 80 % 1024,4 hPa 0,0 l/m 0,0 km/h NW 3,6 C 6,8 C 0,0 km/h
19.05.2010 00:00 7,4 C 80 % 1024,4 hPa 0,0 l/m 0,0 km/h S-SO 4,2 C 7,4 C 0,0 km/h
19.05.2010 01:00 7,0 C 82 % 1024,0 hPa 0,0 l/m 0,0 km/h O 4,1 C 7,0 C 0,0 km/h
19.05.2010 02:00 5,3 C 85 % 1023,5 hPa 0,0 l/m 0,0 km/h O-SO 3,0 C 5,3 C 0,0 km/h
19.05.2010 03:00 4,5 C 87 % 1023,6 hPa 0,0 l/m 0,0 km/h S-SO 2,5 C 4,5 C 0,0 km/h
19.05.2010 04:00 4,5 C 88 % 1023,6 hPa 0,0 l/m 0,0 km/h S-SO 2,7 C 4,5 C 0,0 km/h
19.05.2010 05:00 5,3 C 88 % 1023,5 hPa 0,0 l/m 0,0 km/h O-NO 3,5 C 5,3 C 0,0 km/h
19.05.2010 06:00 6,0 C 87 % 1023,7 hPa 0,0 l/m 0,0 km/h SO 4,0 C 6,0 C 0,0 km/h
19.05.2010 07:00 8,2 C 83 % 1023,8 hPa 0,0 l/m 0,0 km/h W 5,5 C 8,2 C 0,0 km/h
19.05.2010 08:00 10,4 C 77 % 1024,2 hPa 0,0 l/m 0,0 km/h S-SW 6,5 C 10,4 C 0,0 km/h
19.05.2010 09:00 12,3 C 70 % 1024,5 hPa 0,0 l/m 0,0 km/h W 7,0 C 12,3 C 0,0 km/h
19.05.2010 10:00 11,7 C 71 % 1024,8 hPa 0,0 l/m 0,0 km/h W 6,6 C 11,7 C 0,0 km/h
19.05.2010 11:00 19,2 C 54 % 1024,8 hPa 0,0 l/m 6,5 km/h N-NW 9,7 C 19,2 C 3,6 km/h
19.05.2010 12:00 17,8 C 45 % 1024,3 hPa 0,0 l/m 0,6 km/h N-NO 5,7 C 17,8 C 0,4 km/h
19.05.2010 13:00 19,9 C 40 % 1024,3 hPa 0,0 l/m 21,4 km/h O 5,9 C 15,8 C 11,9 km/h
19.05.2010 14:00 19,9 C 38 % 1024,1 hPa 0,0 l/m 0,0 km/h NW 5,2 C 19,9 C 0,0 km/h
19.05.2010 15:00 18,6 C 34 % 1024,4 hPa 0,0 l/m 1,3 km/h N 2,4 C 18,6 C 0,7 km/h
19.05.2010 16:00 20,4 C 37 % 1024,6 hPa 0,0 l/m 14,3 km/h O 5,2 C 17,9 C 7,9 km/h
19.05.2010 17:00 14,4 C 47 % 1024,8 hPa 0,0 l/m 5,8 km/h N-NO 3,2 C 14,4 C 3,2 km/h
19.05.2010 18:00 12,9 C 56 % 1024,9 hPa 0,0 l/m 0,0 km/h NO 4,3 C 12,9 C 0,0 km/h
19.05.2010 19:00 11,4 C 66 % 1026,0 hPa 0,0 l/m 14,3 km/h NO 5,3 C 7,1 C 7,9 km/h
19.05.2010 20:00 9,9 C 71 % 1026,2 hPa 0,0 l/m 0,0 km/h S-SO 4,9 C 9,9 C 0,0 km/h
19.05.2010 21:00 8,7 C 82 % 1026,5 hPa 0,4 l/m 0,0 km/h SW 5,8 C 8,7 C 0,0 km/h
19.05.2010 22:00 8,7 C 84 % 1026,8 hPa 0,4 l/m 0,0 km/h SW 6,2 C 8,7 C 0,0 km/h
19.05.2010 23:00 8,6 C 87 % 1026,5 hPa 0,0 l/m 0,0 km/h S-SO 6,6 C 8,6 C 0,0 km/h
20.05.2010 00:00 8,2 C 89 % 1026,6 hPa 0,7 l/m 0,0 km/h S-SO 6,5 C 8,2 C 0,0 km/h
20.05.2010 01:00 8,2 C 89 % 1026,4 hPa 0,0 l/m 0,0 km/h N-NO 6,5 C 8,2 C 0,0 km/h
20.05.2010 02:00 8,4 C 90 % 1026,1 hPa 0,0 l/m 0,0 km/h SO 6,9 C 8,4 C 0,0 km/h
20.05.2010 03:00 8,3 C 90 % 1025,9 hPa 0,0 l/m 0,0 km/h O-SO 6,8 C 8,3 C 0,0 km/h
20.05.2010 04:00 8,3 C 90 % 1025,9 hPa 0,0 l/m 0,0 km/h SO 6,8 C 8,3 C 0,0 km/h
20.05.2010 05:00 8,4 C 91 % 1025,9 hPa 0,4 l/m 0,0 km/h O-SO 7,0 C 8,4 C 0,0 km/h
20.05.2010 06:00 8,4 C 91 % 1026,1 hPa 0,0 l/m 0,0 km/h O 7,0 C 8,4 C 0,0 km/h
20.05.2010 07:00 8,8 C 91 % 1026,3 hPa 0,0 l/m 0,0 km/h O-SO 7,4 C 8,8 C 0,0 km/h
20.05.2010 08:00 9,3 C 90 % 1026,8 hPa 0,4 l/m 0,0 km/h W-NW 7,7 C 9,3 C 0,0 km/h
20.05.2010 09:00 10,1 C 89 % 1026,9 hPa 0,4 l/m 0,0 km/h W-NW 8,4 C 10,1 C 0,0 km/h
20.05.2010 10:00 11,1 C 86 % 1027,0 hPa 0,4 l/m 0,0 km/h N-NW 8,8 C 11,1 C 0,0 km/h
20.05.2010 11:00 9,9 C 88 % 1026,9 hPa 0,4 l/m 0,0 km/h N-NW 8,0 C 9,9 C 0,0 km/h
20.05.2010 12:00 11,5 C 86 % 1027,1 hPa 0,7 l/m 0,0 km/h N-NO 9,2 C 11,5 C 0,0 km/h
20.05.2010 13:00 12,4 C 82 % 1026,8 hPa 0,0 l/m 0,0 km/h W-NW 9,4 C 12,4 C 0,0 km/h
20.05.2010 14:00 13,6 C 78 % 1026,7 hPa 0,4 l/m 0,0 km/h NW 9,8 C 13,6 C 0,0 km/h
20.05.2010 15:00 11,9 C 82 % 1027,0 hPa 0,0 l/m 0,0 km/h N-NO 8,9 C 11,9 C 0,0 km/h
20.05.2010 16:00 12,1 C 82 % 1027,0 hPa 0,0 l/m 0,0 km/h O-NO 9,1 C 12,1 C 0,0 km/h
20.05.2010 17:00 12,2 C 81 % 1027,2 hPa 0,0 l/m 0,0 km/h N-NO 9,0 C 12,2 C 0,0 km/h
20.05.2010 18:00 11,8 C 81 % 1027,1 hPa 0,0 l/m 0,0 km/h NO 8,6 C 11,8 C 0,0 km/h
20.05.2010 19:00 11,1 C 85 % 1027,0 hPa 0,0 l/m 0,0 km/h NO 8,7 C 11,1 C 0,0 km/h
20.05.2010 20:00 10,6 C 86 % 1027,1 hPa 0,0 l/m 0,0 km/h NO 8,4 C 10,6 C 0,0 km/h
20.05.2010 21:00 10,1 C 89 % 1027,3 hPa 0,0 l/m 0,0 km/h NO 8,4 C 10,1 C 0,0 km/h
20.05.2010 22:00 10,1 C 90 % 1027,6 hPa 0,0 l/m 0,0 km/h NO 8,5 C 10,1 C 0,0 km/h
20.05.2010 23:00 9,8 C 90 % 1027,5 hPa 0,0 l/m 0,0 km/h NO 8,2 C 9,8 C 0,0 km/h
21.05.2010 00:00 9,8 C 91 % 1027,4 hPa 0,0 l/m 0,0 km/h NO 8,4 C 9,8 C 0,0 km/h
21.05.2010 01:00 9,8 C 91 % 1027,1 hPa 0,0 l/m 0,0 km/h NO 8,4 C 9,8 C 0,0 km/h
21.05.2010 02:00 9,6 C 92 % 1026,7 hPa 0,0 l/m 0,0 km/h N-NW 8,4 C 9,6 C 0,0 km/h
21.05.2010 03:00 9,8 C 92 % 1026,4 hPa 0,0 l/m 0,0 km/h N-NO 8,6 C 9,8 C 0,0 km/h
21.05.2010 04:00 9,8 C 92 % 1026,3 hPa 0,0 l/m 0,0 km/h N-NO 8,6 C 9,8 C 0,0 km/h
21.05.2010 05:00 9,6 C 92 % 1026,0 hPa 0,0 l/m 0,0 km/h N-NO 8,4 C 9,6 C 0,0 km/h
21.05.2010 06:00 9,9 C 92 % 1026,1 hPa 0,0 l/m 0,0 km/h N-NO 8,7 C 9,9 C 0,0 km/h
21.05.2010 07:00 10,7 C 92 % 1026,4 hPa 0,0 l/m 0,0 km/h N-NO 9,5 C 10,7 C 0,0 km/h
21.05.2010 08:00 13,2 C 84 % 1026,3 hPa 0,0 l/m 0,0 km/h W 10,6 C 13,2 C 0,0 km/h
21.05.2010 09:00 13,0 C 84 % 1026,5 hPa 0,0 l/m 2,6 km/h W-NW 10,4 C 13,0 C 1,4 km/h
21.05.2010 10:00 13,6 C 83 % 1026,4 hPa 0,0 l/m 0,0 km/h N-NO 10,8 C 13,6 C 0,0 km/h
21.05.2010 11:00 13,7 C 81 % 1026,5 hPa 0,0 l/m 0,0 km/h N-NO 10,5 C 13,7 C 0,0 km/h
21.05.2010 12:00 14,6 C 78 % 1026,3 hPa 0,0 l/m 7,8 km/h O-SO 10,8 C 13,8 C 4,3 km/h
21.05.2010 13:00 15,6 C 77 % 1026,1 hPa 0,0 l/m 0,0 km/h N-NW 11,6 C 15,6 C 0,0 km/h
21.05.2010 14:00 18,5 C 69 % 1026,0 hPa 0,0 l/m 1,3 km/h N-NW 12,7 C 18,5 C 0,7 km/h
21.05.2010 15:00 18,8 C 67 % 1025,5 hPa 0,0 l/m 3,2 km/h N-NO 12,5 C 18,8 C 1,8 km/h
21.05.2010 16:00 18,6 C 69 % 1025,3 hPa 0,0 l/m 0,0 km/h N 12,8 C 18,6 C 0,0 km/h
Min-Datum _ 17.05.10 18.05.10 17.05.10 - 17.05.10 - 19.05.10 17.05.10 17.05.10
_ Min-Zeit 03:53 17:53 00:53 - 00:53 - 15:53 03:53 00:53
Minimum _ 4,2 C 33 % 1019,1 hPa - 0,0 km/h - 2,4 C 4,2 C 0,0 km/h
Max-Datum _ 18.05.10 17.05.10 20.05.10 17.05.10 19.05.10 - 21.05.10 18.05.10 19.05.10
_ Max-Zeit 17:53 05:53 22:53 23:53 13:53 - 16:53 17:53 13:53
Maximum _ 23,8 C 93 % 1027,6 hPa 0,7 l/m 21,4 km/h
O
- 12,8 C 23,1 C 11,9 km/h
O
Durchschnitt _ 11,9 C 75 % 1024,5 hPa #5,3 l/m 1,2 km/h N-NO 7,1 C 11,7 C 0,7 km/h